Time;durP1;ratioP1;P1;durP2;ratioP2;P2;SDS_P1;SDS_P2;PMS_P1;PMS_P2;Temp;Humidity;BMP_temperature;BMP_pressure;BME280_temperature;BME280_humidity;BME280_pressure;Samples;Min_cycle;Max_cycle;Signal;HPM_P1;HPM_P2
2024/01/19 00:02:16;;;;;;;9.83;9.53;;;-0.90;99.90;;;;;;6074718;23;20208;-82
2024/01/19 00:04:43;;;;;;;9.70;9.40;;;-0.90;99.90;;;;;;6075852;23;20214;-82
2024/01/19 00:07:10;;;;;;;9.73;9.43;;;-0.90;99.90;;;;;;6074950;23;20201;-82
2024/01/19 00:09:37;;;;;;;9.67;9.37;;;-0.80;99.90;;;;;;6077647;23;20214;-82
2024/01/19 00:12:05;;;;;;;9.77;9.47;;;-0.70;99.90;;;;;;6078880;23;20218;-82
2024/01/19 00:14:32;;;;;;;9.70;9.40;;;-0.70;99.90;;;;;;6077091;23;20278;-81
2024/01/19 00:17:01;;;;;;;9.60;9.30;;;-0.60;99.90;;;;;;6075888;23;20213;-82
2024/01/19 00:19:28;;;;;;;9.60;9.30;;;-0.50;99.90;;;;;;6076232;23;20224;-82
2024/01/19 00:21:55;;;;;;;9.60;9.30;;;-0.50;99.90;;;;;;6075415;23;20211;-82
2024/01/19 00:24:23;;;;;;;10.10;9.80;;;-0.50;99.90;;;;;;6075270;23;20221;-79
2024/01/19 00:26:50;;;;;;;9.70;9.40;;;-0.50;99.90;;;;;;6076143;23;20265;-79
2024/01/19 00:29:18;;;;;;;9.50;9.20;;;-0.50;99.90;;;;;;6079033;23;20218;-79
2024/01/19 00:31:46;;;;;;;9.30;9.00;;;-0.50;99.90;;;;;;6081743;23;20214;-81
2024/01/19 00:34:16;;;;;;;9.27;8.97;;;-0.50;99.90;;;;;;6079067;23;20204;-80
2024/01/19 00:36:43;;;;;;;9.20;8.90;;;-0.50;99.90;;;;;;6080383;23;20222;-81
2024/01/19 00:39:11;;;;;;;9.20;8.90;;;-0.50;99.90;;;;;;6077624;23;20232;-81
2024/01/19 00:41:38;;;;;;;9.50;9.20;;;-0.50;99.90;;;;;;6077926;23;20276;-81
2024/01/19 00:44:06;;;;;;;9.20;8.90;;;-0.50;99.90;;;;;;6083059;23;20194;-81
2024/01/19 00:46:33;;;;;;;9.43;9.13;;;-0.50;99.90;;;;;;6089837;23;20245;-82
2024/01/19 00:49:00;;;;;;;9.03;8.73;;;-0.50;99.90;;;;;;6087800;23;20208;-81
2024/01/19 00:51:29;;;;;;;8.90;8.70;;;-0.50;99.90;;;;;;6091325;23;20186;-80
2024/01/19 00:53:56;;;;;;;8.87;8.63;;;-0.50;99.90;;;;;;6094616;23;20232;-79
2024/01/19 00:56:23;;;;;;;9.40;9.10;;;-0.50;99.90;;;;;;6093992;23;20210;-81
2024/01/19 00:58:51;;;;;;;9.53;9.23;;;-0.50;99.90;;;;;;6093145;23;20205;-81
2024/01/19 01:01:18;;;;;;;9.63;9.33;;;-0.40;99.90;;;;;;6083401;23;20217;-80
2024/01/19 01:03:46;;;;;;;9.70;9.40;;;-0.40;99.90;;;;;;6081332;23;20262;-81
2024/01/19 01:06:13;;;;;;;9.67;9.37;;;-0.50;99.90;;;;;;6080397;23;20266;-81
2024/01/19 01:08:42;;;;;;;9.70;9.40;;;-0.50;99.90;;;;;;6079519;23;20206;-81
2024/01/19 01:11:09;;;;;;;9.40;9.10;;;-0.50;99.90;;;;;;6082036;23;20201;-81
2024/01/19 01:13:37;;;;;;;9.80;9.50;;;-0.50;99.90;;;;;;6088054;23;20213;-81
2024/01/19 01:16:04;;;;;;;9.77;9.47;;;-0.60;99.90;;;;;;6079873;23;20202;-80
2024/01/19 01:18:32;;;;;;;10.00;9.70;;;-0.60;99.90;;;;;;6079469;23;20203;-81
2024/01/19 01:21:00;;;;;;;9.97;9.67;;;-0.60;99.90;;;;;;6079262;23;20205;-81
2024/01/19 01:23:27;;;;;;;9.57;9.27;;;-0.70;99.90;;;;;;6079503;23;20290;-81
2024/01/19 01:25:55;;;;;;;9.90;9.60;;;-0.60;99.90;;;;;;6078948;23;20298;-80
2024/01/19 01:28:23;;;;;;;9.87;9.57;;;-0.70;99.90;;;;;;6078432;23;20213;-81
2024/01/19 01:30:50;;;;;;;9.70;9.40;;;-0.80;99.90;;;;;;6077976;23;20200;-81
2024/01/19 01:33:17;;;;;;;9.77;9.47;;;-1.00;99.90;;;;;;6077904;23;20216;-81
2024/01/19 01:35:45;;;;;;;9.47;9.17;;;-0.90;99.90;;;;;;6078245;23;20233;-81
2024/01/19 01:38:12;;;;;;;9.90;9.60;;;-0.90;99.90;;;;;;6076936;23;20210;-81
2024/01/19 01:40:39;;;;;;;9.77;9.47;;;-1.00;99.90;;;;;;6077187;23;20198;-81
2024/01/19 01:43:08;;;;;;;9.97;9.67;;;-1.00;99.90;;;;;;6077331;23;20198;-81
2024/01/19 01:45:35;;;;;;;9.87;9.57;;;-1.00;99.90;;;;;;6076582;23;20210;-81
2024/01/19 01:48:03;;;;;;;9.97;9.67;;;-1.00;99.90;;;;;;6077633;23;20198;-81
2024/01/19 01:50:30;;;;;;;9.80;9.50;;;-0.90;99.90;;;;;;6076809;23;20201;-82
2024/01/19 01:52:58;;;;;;;10.27;9.97;;;-0.90;99.90;;;;;;6077027;23;20201;-81
2024/01/19 01:55:25;;;;;;;10.10;9.80;;;-0.80;99.90;;;;;;6079808;23;20262;-81
2024/01/19 01:57:52;;;;;;;9.73;9.43;;;-0.80;99.90;;;;;;6081746;23;20204;-81
2024/01/19 02:00:22;;;;;;;10.00;9.70;;;-0.80;99.90;;;;;;6081488;23;20277;-80
2024/01/19 02:02:50;;;;;;;9.90;9.60;;;-0.80;99.90;;;;;;6079333;23;20209;-81
2024/01/19 02:05:18;;;;;;;9.70;9.40;;;-1.00;99.90;;;;;;6080125;23;20204;-81
2024/01/19 02:07:45;;;;;;;10.20;9.90;;;-1.10;99.90;;;;;;6079852;23;20209;-81
2024/01/19 02:10:13;;;;;;;10.10;9.80;;;-1.10;99.90;;;;;;6079602;23;20205;-80
2024/01/19 02:12:40;;;;;;;10.20;9.90;;;-1.10;99.90;;;;;;6079143;23;20216;-81
2024/01/19 02:15:19;;;;;;;9.97;9.67;;;-1.00;99.90;;;;;;6078336;23;20226;-81
2024/01/19 02:17:47;;;;;;;10.03;9.73;;;-1.00;99.90;;;;;;6077998;23;20201;-80
2024/01/19 02:20:14;;;;;;;9.93;9.63;;;-0.90;99.90;;;;;;6077259;23;20207;-81
2024/01/19 02:22:44;;;;;;;10.17;9.87;;;-0.90;99.90;;;;;;6077658;23;20205;-82
2024/01/19 02:25:14;;;;;;;10.03;9.73;;;-0.90;99.90;;;;;;6077476;23;20183;-81
2024/01/19 02:27:41;;;;;;;9.93;9.63;;;-0.90;99.90;;;;;;6077102;23;20206;-81
2024/01/19 02:30:10;;;;;;;9.87;9.57;;;-0.90;99.90;;;;;;6076475;23;20213;-82
2024/01/19 02:32:37;;;;;;;10.20;9.90;;;-0.90;99.90;;;;;;6077482;23;20211;-81
2024/01/19 02:35:06;;;;;;;9.90;9.60;;;-0.90;99.90;;;;;;6076956;23;20264;-82
2024/01/19 02:37:33;;;;;;;9.90;9.60;;;-1.00;99.90;;;;;;6077584;23;20198;-81
2024/01/19 02:40:01;;;;;;;9.90;9.60;;;-1.10;99.90;;;;;;6077224;23;20207;-82
2024/01/19 02:42:31;;;;;;;10.10;9.80;;;-1.10;99.90;;;;;;6077097;23;20221;-82
2024/01/19 02:44:59;;;;;;;10.10;9.80;;;-1.10;99.90;;;;;;6077586;23;20218;-81
2024/01/19 02:47:27;;;;;;;9.93;9.63;;;-1.10;99.90;;;;;;6078412;23;20221;-81
2024/01/19 02:49:55;;;;;;;10.00;9.70;;;-1.10;99.90;;;;;;6078635;23;20209;-82
2024/01/19 02:52:22;;;;;;;10.07;9.77;;;-1.20;99.90;;;;;;6080889;23;20202;-81
2024/01/19 02:54:49;;;;;;;9.87;9.57;;;-1.30;99.90;;;;;;6084199;23;20201;-81
2024/01/19 02:57:16;;;;;;;10.13;9.83;;;-1.30;99.90;;;;;;6076970;23;20739;-81
2024/01/19 02:59:45;;;;;;;9.77;9.47;;;-1.40;99.90;;;;;;6076456;23;20300;-80
2024/01/19 03:02:12;;;;;;;9.83;9.53;;;-1.40;99.90;;;;;;6079770;23;20205;-81
2024/01/19 03:04:40;;;;;;;10.20;9.90;;;-1.40;99.90;;;;;;6085416;23;20206;-81
2024/01/19 03:07:07;;;;;;;10.00;9.70;;;-1.40;99.90;;;;;;6079067;23;20210;-81
2024/01/19 03:09:34;;;;;;;10.10;9.80;;;-1.50;99.90;;;;;;6086447;23;20240;-81
2024/01/19 03:12:02;;;;;;;9.90;9.60;;;-1.50;99.90;;;;;;6089105;23;20206;-80
2024/01/19 03:14:30;;;;;;;10.10;9.80;;;-1.50;99.90;;;;;;6088101;23;20232;-81
2024/01/19 03:16:58;;;;;;;9.93;9.63;;;-1.50;99.90;;;;;;6088452;23;20207;-81
2024/01/19 03:19:25;;;;;;;9.90;9.60;;;-1.50;99.90;;;;;;6087717;23;20209;-80
2024/01/19 03:21:53;;;;;;;10.20;9.90;;;-1.50;99.90;;;;;;6088024;23;20206;-81
2024/01/19 03:24:20;;;;;;;10.43;10.13;;;-1.50;99.90;;;;;;6081476;23;20198;-81
2024/01/19 03:26:48;;;;;;;10.17;9.87;;;-1.50;99.90;;;;;;6076840;23;20208;-81
2024/01/19 03:29:15;;;;;;;10.27;9.97;;;-1.50;99.90;;;;;;6075818;23;20205;-81
2024/01/19 03:31:43;;;;;;;10.00;9.70;;;-1.50;99.90;;;;;;6077131;23;20197;-82
2024/01/19 03:34:11;;;;;;;9.67;9.37;;;-1.50;99.90;;;;;;6078824;23;20216;-81
2024/01/19 03:36:39;;;;;;;10.17;9.87;;;-1.50;99.90;;;;;;6078123;23;20195;-81
2024/01/19 03:39:06;;;;;;;10.47;10.17;;;-1.50;99.90;;;;;;6076899;23;20297;-82
2024/01/19 03:41:34;;;;;;;9.73;9.43;;;-1.40;99.90;;;;;;6075640;23;20208;-82
2024/01/19 03:44:01;;;;;;;9.70;9.40;;;-1.40;99.90;;;;;;6075340;23;20221;-82
2024/01/19 03:46:28;;;;;;;9.77;9.47;;;-1.30;99.90;;;;;;6075528;23;20206;-82
2024/01/19 03:48:55;;;;;;;10.53;10.23;;;-1.40;99.90;;;;;;6074747;23;20213;-82
2024/01/19 03:51:24;;;;;;;10.20;9.90;;;-1.40;99.90;;;;;;6075088;23;20237;-81
2024/01/19 03:53:51;;;;;;;10.20;9.90;;;-1.50;99.90;;;;;;6074606;23;20200;-82
2024/01/19 03:56:18;;;;;;;10.00;9.70;;;-1.50;99.90;;;;;;6075117;23;20226;-82
2024/01/19 03:58:46;;;;;;;10.30;10.00;;;-1.50;99.90;;;;;;6074813;23;20214;-82
2024/01/19 04:01:15;;;;;;;10.07;9.77;;;-1.50;99.90;;;;;;6075280;23;20281;-82
2024/01/19 04:03:44;;;;;;;10.17;9.87;;;-1.40;99.90;;;;;;6074844;23;20232;-81
2024/01/19 04:06:11;;;;;;;9.97;9.67;;;-1.40;99.90;;;;;;6074752;23;20240;-82
2024/01/19 04:08:40;;;;;;;10.40;10.10;;;-1.40;99.90;;;;;;6074094;23;20259;-82
2024/01/19 04:11:07;;;;;;;10.40;10.10;;;-1.40;99.90;;;;;;6074613;23;20680;-82
2024/01/19 04:13:34;;;;;;;10.20;9.90;;;-1.40;99.90;;;;;;6074816;23;20210;-82
2024/01/19 04:16:02;;;;;;;10.37;10.07;;;-1.40;99.90;;;;;;6074556;23;20210;-82
2024/01/19 04:18:29;;;;;;;10.50;10.20;;;-1.40;99.90;;;;;;6075082;23;20214;-82
2024/01/19 04:20:56;;;;;;;10.23;9.93;;;-1.30;99.90;;;;;;6075765;23;20197;-82
2024/01/19 04:23:24;;;;;;;10.33;10.03;;;-1.30;99.90;;;;;;6076806;23;20977;-81
2024/01/19 04:25:52;;;;;;;10.23;9.93;;;-1.30;99.90;;;;;;6076731;23;20201;-82
2024/01/19 04:28:19;;;;;;;10.03;9.73;;;-1.30;99.90;;;;;;6075920;23;20205;-81
2024/01/19 04:30:47;;;;;;;10.10;9.80;;;-1.20;99.90;;;;;;6075017;23;20200;-82
2024/01/19 04:33:14;;;;;;;10.10;9.80;;;-1.20;99.90;;;;;;6074473;23;20209;-81
2024/01/19 04:35:41;;;;;;;9.90;9.60;;;-1.10;99.90;;;;;;6074648;23;20198;-82
2024/01/19 04:38:08;;;;;;;9.87;9.57;;;-1.20;99.90;;;;;;6075119;23;20201;-82
2024/01/19 04:40:36;;;;;;;9.87;9.57;;;-1.10;99.90;;;;;;6074820;23;20676;-82
2024/01/19 04:43:04;;;;;;;9.87;9.57;;;-1.10;99.90;;;;;;6074295;23;20211;-81
2024/01/19 04:45:32;;;;;;;9.87;9.57;;;-1.10;99.90;;;;;;6073882;23;20201;-82
2024/01/19 04:47:59;;;;;;;9.77;9.47;;;-1.10;99.90;;;;;;6074420;23;20213;-82
2024/01/19 04:50:26;;;;;;;10.00;9.70;;;-1.20;99.90;;;;;;6078450;23;20201;-81
2024/01/19 04:52:53;;;;;;;9.83;9.53;;;-1.20;99.90;;;;;;6077465;23;20199;-81
2024/01/19 04:55:21;;;;;;;9.90;9.60;;;-1.20;99.90;;;;;;6076238;23;20194;-81
2024/01/19 04:57:48;;;;;;;9.90;9.60;;;-1.10;99.90;;;;;;6074641;23;20209;-81
2024/01/19 05:00:17;;;;;;;9.87;9.57;;;-1.10;99.90;;;;;;6074707;23;20202;-80
2024/01/19 05:02:44;;;;;;;10.40;10.10;;;-1.20;99.90;;;;;;6074388;23;20218;-81
2024/01/19 05:05:12;;;;;;;10.23;9.93;;;-1.10;99.90;;;;;;6075842;23;20218;-81
2024/01/19 05:07:39;;;;;;;10.07;9.77;;;-1.10;99.90;;;;;;6075439;23;20209;-81
2024/01/19 05:10:07;;;;;;;9.80;9.50;;;-1.10;99.90;;;;;;6073816;23;20212;-81
2024/01/19 05:12:35;;;;;;;10.13;9.83;;;-1.00;99.90;;;;;;6073953;23;20217;-81
2024/01/19 05:15:02;;;;;;;9.97;9.67;;;-1.00;99.90;;;;;;6073800;23;20198;-81
2024/01/19 05:17:31;;;;;;;10.50;10.20;;;-0.90;99.90;;;;;;6073548;23;20267;-81
2024/01/19 05:19:58;;;;;;;10.00;9.70;;;-0.90;99.90;;;;;;6073351;23;20204;-81
2024/01/19 05:22:25;;;;;;;10.00;9.70;;;-0.90;99.90;;;;;;6076078;23;20284;-83
2024/01/19 05:24:52;;;;;;;10.00;9.70;;;-0.90;99.90;;;;;;6080647;23;20214;-82
2024/01/19 05:27:19;;;;;;;9.73;9.43;;;-0.90;99.90;;;;;;6078797;23;20198;-80
2024/01/19 05:29:47;;;;;;;9.97;9.67;;;-1.00;99.90;;;;;;6079212;23;20257;-81
2024/01/19 05:32:14;;;;;;;9.83;9.53;;;-1.00;99.90;;;;;;6077338;23;20213;-81
2024/01/19 05:34:44;;;;;;;9.63;9.33;;;-1.00;99.90;;;;;;6078210;23;20196;-81
2024/01/19 05:37:11;;;;;;;9.77;9.47;;;-1.10;99.90;;;;;;6092616;22;20191;-79
2024/01/19 05:39:39;;;;;;;9.87;9.57;;;-1.10;99.90;;;;;;6093354;22;20215;-80
2024/01/19 05:42:06;;;;;;;9.60;9.30;;;-1.00;99.90;;;;;;6097068;22;20179;-79
2024/01/19 05:44:33;;;;;;;9.87;9.57;;;-1.00;99.90;;;;;;6097639;22;20199;-79
2024/01/19 05:47:01;;;;;;;9.80;9.50;;;-1.10;99.90;;;;;;6097518;22;20245;-79
2024/01/19 05:49:28;;;;;;;9.83;9.53;;;-1.10;99.90;;;;;;6096957;22;20198;-79
2024/01/19 05:51:56;;;;;;;9.67;9.37;;;-1.10;99.90;;;;;;6097614;22;20221;-79
2024/01/19 05:54:24;;;;;;;9.73;9.43;;;-1.20;99.90;;;;;;6097692;22;20187;-78
2024/01/19 05:56:51;;;;;;;9.50;9.20;;;-1.20;99.90;;;;;;6096001;22;20225;-81
2024/01/19 05:59:18;;;;;;;9.57;9.27;;;-1.20;99.90;;;;;;6096146;22;20213;-79
2024/01/19 06:01:45;;;;;;;9.23;8.93;;;-1.30;99.90;;;;;;6097364;22;20171;-80
2024/01/19 06:04:12;;;;;;;9.70;9.40;;;-1.30;99.90;;;;;;6097410;22;20186;-80
2024/01/19 06:06:40;;;;;;;9.73;9.43;;;-1.40;99.90;;;;;;6097165;22;20214;-80
2024/01/19 06:09:09;;;;;;;9.67;9.37;;;-1.50;99.90;;;;;;6096786;22;20235;-79
2024/01/19 06:11:36;;;;;;;9.67;9.37;;;-1.50;99.90;;;;;;6097063;22;20193;-78
2024/01/19 06:14:03;;;;;;;9.60;9.30;;;-1.50;99.90;;;;;;6097457;22;20203;-79
2024/01/19 06:16:30;;;;;;;10.00;9.70;;;-1.60;99.90;;;;;;6097128;22;20194;-80
2024/01/19 06:18:58;;;;;;;9.70;9.40;;;-1.60;99.90;;;;;;6090044;22;20240;-81
2024/01/19 06:21:25;;;;;;;10.30;10.00;;;-1.60;99.90;;;;;;6076028;23;20235;-81
2024/01/19 06:23:52;;;;;;;9.83;9.53;;;-1.60;99.90;;;;;;6075859;23;20216;-81
2024/01/19 06:26:21;;;;;;;9.50;9.20;;;-1.60;99.90;;;;;;6080010;23;20253;-81
2024/01/19 06:28:48;;;;;;;9.50;9.20;;;-1.50;99.90;;;;;;6091552;23;20214;-80
2024/01/19 06:31:15;;;;;;;9.43;9.13;;;-1.50;99.90;;;;;;6091334;23;20245;-81
2024/01/19 06:33:42;;;;;;;10.03;9.73;;;-1.40;99.90;;;;;;6091217;23;20234;-81
2024/01/19 06:36:10;;;;;;;10.00;9.70;;;-1.40;99.90;;;;;;6084801;23;20198;-81
2024/01/19 06:38:38;;;;;;;9.90;9.60;;;-1.30;99.90;;;;;;6082302;23;20302;-81
2024/01/19 06:41:05;;;;;;;10.00;9.70;;;-1.30;99.90;;;;;;6080228;23;20213;-81
2024/01/19 06:43:34;;;;;;;10.13;9.83;;;-1.40;99.90;;;;;;6079102;23;20213;-81
2024/01/19 06:46:01;;;;;;;9.57;9.27;;;-1.40;99.90;;;;;;6077840;23;20214;-81
2024/01/19 06:48:28;;;;;;;9.60;9.30;;;-1.40;99.90;;;;;;6077019;23;20217;-80
2024/01/19 06:50:56;;;;;;;9.80;9.50;;;-1.50;99.90;;;;;;6078288;23;20238;-81
2024/01/19 06:53:23;;;;;;;9.80;9.50;;;-1.50;99.90;;;;;;6078755;23;20255;-80
2024/01/19 06:55:50;;;;;;;10.07;9.77;;;-1.50;99.90;;;;;;6078557;23;20205;-79
2024/01/19 06:58:17;;;;;;;9.90;9.60;;;-1.50;99.90;;;;;;6077859;23;20208;-80
2024/01/19 07:00:46;;;;;;;9.97;9.67;;;-1.50;99.90;;;;;;6077541;23;20204;-80
2024/01/19 07:03:13;;;;;;;10.43;10.13;;;-1.50;99.90;;;;;;6076705;23;20208;-79
2024/01/19 07:05:42;;;;;;;10.70;10.40;;;-1.60;99.90;;;;;;6078967;23;20204;-79
2024/01/19 07:08:09;;;;;;;10.40;10.10;;;-1.60;99.90;;;;;;6076697;23;20195;-80
2024/01/19 07:10:37;;;;;;;10.17;9.87;;;-1.60;99.90;;;;;;6075267;23;20199;-81
2024/01/19 07:13:04;;;;;;;10.27;9.97;;;-1.50;99.90;;;;;;6076215;23;20197;-80
2024/01/19 07:15:32;;;;;;;9.97;9.67;;;-1.50;99.90;;;;;;6075061;23;20232;-80
2024/01/19 07:18:00;;;;;;;10.37;10.07;;;-1.50;99.90;;;;;;6075475;23;20194;-79
2024/01/19 07:20:27;;;;;;;10.37;10.07;;;-1.50;99.90;;;;;;6076466;23;20204;-80
2024/01/19 07:22:55;;;;;;;10.80;10.50;;;-1.50;99.90;;;;;;6076916;23;20212;-80
2024/01/19 07:25:22;;;;;;;10.47;10.17;;;-1.50;99.90;;;;;;6076804;23;20260;-80
2024/01/19 07:27:49;;;;;;;10.77;10.47;;;-1.50;99.90;;;;;;6077419;23;20211;-80
2024/01/19 07:30:17;;;;;;;10.83;10.53;;;-1.50;99.90;;;;;;6076268;23;20223;-80
2024/01/19 07:32:44;;;;;;;10.50;10.20;;;-1.50;99.90;;;;;;6075640;23;20255;-80
2024/01/19 07:35:13;;;;;;;10.57;10.27;;;-1.50;99.90;;;;;;6075563;23;20696;-80
2024/01/19 07:37:40;;;;;;;10.37;10.07;;;-1.50;99.90;;;;;;6075848;23;20206;-81
2024/01/19 07:40:09;;;;;;;10.13;9.83;;;-1.50;99.90;;;;;;6075341;23;20240;-80
2024/01/19 07:42:36;;;;;;;9.80;9.50;;;-1.50;99.90;;;;;;6076527;23;20237;-80
2024/01/19 07:45:03;;;;;;;10.00;9.70;;;-1.50;99.90;;;;;;6076396;23;20228;-80
2024/01/19 07:47:32;;;;;;;10.00;9.70;;;-1.60;99.90;;;;;;6076286;23;20275;-80
2024/01/19 07:49:59;;;;;;;10.53;10.23;;;-1.60;99.90;;;;;;6075518;23;20292;-80
2024/01/19 07:52:28;;;;;;;10.13;9.83;;;-1.60;99.90;;;;;;6076921;23;20200;-80
2024/01/19 07:54:55;;;;;;;10.13;9.83;;;-1.60;99.90;;;;;;6080406;23;20256;-80
2024/01/19 07:57:22;;;;;;;10.30;10.00;;;-1.60;99.90;;;;;;6079334;23;20214;-80
2024/01/19 07:59:49;;;;;;;9.83;9.53;;;-1.60;99.90;;;;;;6075413;23;20199;-80
2024/01/19 08:02:17;;;;;;;9.93;9.63;;;-1.50;99.90;;;;;;6076369;23;20211;-80
2024/01/19 08:04:44;;;;;;;10.10;9.80;;;-1.60;99.90;;;;;;6075670;23;20244;-81
2024/01/19 08:07:11;;;;;;;10.10;9.80;;;-1.60;99.90;;;;;;6076067;23;20232;-80
2024/01/19 08:09:40;;;;;;;9.87;9.57;;;-1.50;99.90;;;;;;6076392;23;20272;-80
2024/01/19 08:12:07;;;;;;;9.77;9.47;;;-1.40;99.90;;;;;;6075842;23;20286;-80
2024/01/19 08:14:35;;;;;;;9.57;9.27;;;-1.40;99.90;;;;;;6074571;23;20267;-80
2024/01/19 08:17:02;;;;;;;9.80;9.50;;;-1.30;99.90;;;;;;6074678;23;20234;-81
2024/01/19 08:19:30;;;;;;;9.90;9.60;;;-1.20;99.90;;;;;;6082385;23;20248;-79
2024/01/19 08:21:57;;;;;;;10.03;9.73;;;-1.30;99.90;;;;;;6077588;23;20225;-80
2024/01/19 08:24:24;;;;;;;9.80;9.50;;;-1.20;99.90;;;;;;6073658;23;20218;-80
2024/01/19 08:26:53;;;;;;;10.10;9.80;;;-1.40;99.90;;;;;;6074836;23;20523;-80
2024/01/19 08:29:20;;;;;;;9.53;9.23;;;-1.40;99.90;;;;;;6074024;23;20205;-80
2024/01/19 08:31:52;;;;;;;9.50;9.20;;;-1.40;99.90;;;;;;6073932;23;20191;-80
2024/01/19 08:34:19;;;;;;;9.47;9.17;;;-1.40;99.90;;;;;;6074365;23;20261;-80
2024/01/19 08:36:46;;;;;;;9.87;9.57;;;-1.40;99.90;;;;;;6081735;23;20198;-80
2024/01/19 08:39:14;;;;;;;9.73;9.43;;;-1.40;99.90;;;;;;6075646;23;20216;-80
2024/01/19 08:41:43;;;;;;;9.53;9.23;;;-1.30;99.90;;;;;;6075398;23;20209;-80
2024/01/19 08:44:12;;;;;;;9.90;9.60;;;-1.30;99.90;;;;;;6074383;23;20242;-80
2024/01/19 08:46:44;;;;;;;9.80;9.50;;;-1.40;99.90;;;;;;6075796;23;20268;-80
2024/01/19 08:49:11;;;;;;;10.10;9.80;;;-1.30;99.90;;;;;;6074715;23;20209;-80
2024/01/19 08:51:39;;;;;;;9.73;9.43;;;-1.30;99.90;;;;;;6074410;23;20212;-80
2024/01/19 08:54:06;;;;;;;9.80;9.50;;;-1.20;99.90;;;;;;6074241;23;20208;-80
2024/01/19 08:56:34;;;;;;;9.50;9.20;;;-1.10;99.90;;;;;;6074897;23;20253;-80
2024/01/19 08:59:01;;;;;;;9.70;9.40;;;-1.00;99.90;;;;;;6075457;23;20250;-80
2024/01/19 09:01:32;;;;;;;9.20;8.90;;;-1.00;99.90;;;;;;6075840;23;20209;-80
2024/01/19 09:03:59;;;;;;;9.47;9.17;;;-0.90;99.90;;;;;;6075870;23;20210;-80
2024/01/19 09:06:27;;;;;;;9.70;9.40;;;-0.90;99.90;;;;;;6075673;23;20198;-81
2024/01/19 09:08:54;;;;;;;9.60;9.30;;;-0.90;99.90;;;;;;6075996;23;20210;-80
2024/01/19 09:11:21;;;;;;;9.87;9.57;;;-0.80;99.90;;;;;;6076301;23;20255;-81
2024/01/19 09:13:49;;;;;;;9.60;9.30;;;-0.80;99.90;;;;;;6076199;23;20257;-80
2024/01/19 09:16:16;;;;;;;9.80;9.50;;;-0.80;99.90;;;;;;6077801;23;20206;-80
2024/01/19 09:18:45;;;;;;;9.90;9.60;;;-0.80;99.90;;;;;;6077067;23;20268;-80
2024/01/19 09:21:17;;;;;;;9.70;9.40;;;-0.70;99.90;;;;;;6076195;23;20194;-81
2024/01/19 09:23:45;;;;;;;9.90;9.60;;;-0.70;99.90;;;;;;6076032;23;20209;-80
2024/01/19 09:26:19;;;;;;;10.00;9.70;;;-0.80;99.90;;;;;;6076686;23;20237;-81
2024/01/19 09:28:47;;;;;;;9.73;9.43;;;-0.70;99.90;;;;;;6077531;23;20296;-80
2024/01/19 09:31:15;;;;;;;9.70;9.40;;;-0.70;99.90;;;;;;6080573;23;20318;-81
2024/01/19 09:33:44;;;;;;;9.57;9.27;;;-0.70;99.90;;;;;;6078885;23;20203;-81
2024/01/19 09:36:12;;;;;;;9.77;9.47;;;-0.70;99.90;;;;;;6076028;23;20210;-81
2024/01/19 09:38:39;;;;;;;9.90;9.60;;;-0.70;99.90;;;;;;6075328;23;20206;-81
2024/01/19 09:41:23;;;;;;;9.67;9.37;;;-0.80;99.90;;;;;;6075421;23;20213;-81
2024/01/19 09:43:55;;;;;;;9.67;9.37;;;-0.80;99.90;;;;;;6075400;23;20214;-80
2024/01/19 09:46:29;;;;;;;9.60;9.30;;;-0.70;99.90;;;;;;6075526;23;20190;-81
2024/01/19 09:49:12;;;;;;;10.03;9.73;;;-0.70;99.90;;;;;;6075479;23;20208;-81
2024/01/19 09:51:49;;;;;;;10.17;9.87;;;-0.60;99.90;;;;;;6074876;23;20223;-81
2024/01/19 09:54:28;;;;;;;9.43;9.13;;;-0.60;99.90;;;;;;6076490;23;20205;-81
2024/01/19 09:56:56;;;;;;;9.67;9.37;;;-0.50;99.90;;;;;;6076115;23;20190;-83
2024/01/19 09:59:29;;;;;;;9.70;9.40;;;-0.50;99.90;;;;;;6074789;23;20222;-83
2024/01/19 10:01:58;;;;;;;9.60;9.30;;;-0.50;99.90;;;;;;6076462;23;20216;-84
2024/01/19 10:04:28;;;;;;;9.60;9.30;;;-0.60;99.90;;;;;;6074638;23;20207;-83
2024/01/19 10:07:01;;;;;;;9.77;9.47;;;-0.70;99.90;;;;;;6074483;23;20206;-82
2024/01/19 10:09:29;;;;;;;9.90;9.60;;;-0.80;99.90;;;;;;6074686;23;20210;-81
2024/01/19 10:11:56;;;;;;;9.73;9.43;;;-0.80;99.90;;;;;;6074610;23;20205;-81
2024/01/19 10:14:25;;;;;;;9.77;9.47;;;-0.80;99.90;;;;;;6074450;23;20205;-82
2024/01/19 10:16:53;;;;;;;9.83;9.53;;;-0.90;99.90;;;;;;6074207;23;20195;-82
2024/01/19 10:19:21;;;;;;;9.77;9.47;;;-0.90;99.90;;;;;;6076199;23;20240;-81
2024/01/19 10:21:51;;;;;;;9.53;9.23;;;-0.80;99.90;;;;;;6076213;23;20213;-82
2024/01/19 10:24:19;;;;;;;9.50;9.20;;;-0.70;99.90;;;;;;6074584;23;20206;-82
2024/01/19 10:26:53;;;;;;;9.60;9.30;;;-0.60;99.90;;;;;;6076373;23;20279;-82
2024/01/19 10:29:21;;;;;;;9.77;9.47;;;-0.40;99.90;;;;;;6078081;23;20222;-82
2024/01/19 10:31:50;;;;;;;9.57;9.27;;;-0.30;99.90;;;;;;6076153;23;20209;-82
2024/01/19 10:34:21;;;;;;;9.40;9.10;;;-0.10;99.90;;;;;;6074447;23;20205;-82
2024/01/19 10:36:54;;;;;;;9.57;9.27;;;0.00;99.90;;;;;;6074765;23;20230;-82
2024/01/19 10:39:23;;;;;;;9.83;9.53;;;0.10;99.90;;;;;;6073890;23;20213;-82
2024/01/19 10:41:52;;;;;;;9.80;9.50;;;0.10;99.90;;;;;;6074115;23;20222;-82
2024/01/19 10:44:22;;;;;;;9.83;9.53;;;0.10;99.90;;;;;;6073988;23;20203;-82
2024/01/19 10:46:50;;;;;;;10.03;9.73;;;0.10;99.90;;;;;;6074469;23;20218;-81
2024/01/19 10:49:19;;;;;;;9.53;9.23;;;0.10;99.90;;;;;;6073467;23;20223;-82
2024/01/19 10:51:51;;;;;;;9.60;9.30;;;0.10;99.90;;;;;;6078567;23;20201;-82
2024/01/19 10:54:25;;;;;;;9.97;9.67;;;-0.10;99.90;;;;;;6079387;23;20194;-82
2024/01/19 10:57:04;;;;;;;10.17;9.87;;;-0.20;99.90;;;;;;6078052;23;20225;-82
2024/01/19 10:59:34;;;;;;;9.90;9.60;;;-0.20;99.90;;;;;;6075544;23;20237;-82
2024/01/19 11:02:04;;;;;;;9.67;9.37;;;-0.20;99.90;;;;;;6076114;23;20233;-82
2024/01/19 11:04:34;;;;;;;9.63;9.33;;;-0.10;99.90;;;;;;6078807;23;20289;-81
2024/01/19 11:07:03;;;;;;;10.10;9.80;;;0.00;99.90;;;;;;6078033;23;20202;-82
2024/01/19 11:09:31;;;;;;;9.60;9.30;;;0.20;99.90;;;;;;6076863;23;20259;-82
2024/01/19 11:11:59;;;;;;;9.70;9.40;;;0.40;99.90;;;;;;6076944;23;20225;-82
2024/01/19 11:14:28;;;;;;;9.67;9.37;;;0.60;99.90;;;;;;6083853;23;20230;-82
2024/01/19 11:16:57;;;;;;;9.70;9.40;;;0.60;99.90;;;;;;6073766;23;20261;-83
2024/01/19 11:19:26;;;;;;;9.53;9.23;;;0.70;99.90;;;;;;6072299;23;20297;-83
2024/01/19 11:21:53;;;;;;;9.40;9.10;;;0.80;99.90;;;;;;6073395;23;20201;-83
2024/01/19 11:24:24;;;;;;;9.67;9.37;;;1.10;99.90;;;;;;6074425;23;20225;-83
2024/01/19 11:27:03;;;;;;;9.80;9.50;;;1.30;99.90;;;;;;6074141;23;20756;-81
2024/01/19 11:29:34;;;;;;;10.00;9.70;;;1.30;99.90;;;;;;6075140;23;20210;-81
2024/01/19 11:32:02;;;;;;;10.03;9.73;;;1.30;99.90;;;;;;6074752;23;20205;-81
2024/01/19 11:34:49;;;;;;;10.27;9.97;;;1.50;99.90;;;;;;6073365;23;20209;-81
2024/01/19 11:37:50;;;;;;;10.17;9.87;;;1.50;99.90;;;;;;6073925;23;20206;-82
2024/01/19 11:40:48;;;;;;;10.30;10.00;;;1.50;99.90;;;;;;6013849;23;20208;-81
2024/01/19 11:43:40;;;;;;;10.00;9.70;;;1.60;99.90;;;;;;6014600;23;20196;-81
2024/01/19 11:46:07;;;;;;;10.20;9.90;;;1.80;99.90;;;;;;6064571;23;20234;-81
2024/01/19 11:48:44;;;;;;;10.30;10.00;;;1.90;99.90;;;;;;6073495;23;20265;-81
2024/01/19 11:51:33;;;;;;;9.80;9.50;;;2.00;99.90;;;;;;6075202;23;20201;-81
2024/01/19 11:54:03;;;;;;;10.50;10.20;;;2.10;99.90;;;;;;6074038;23;20252;-81
2024/01/19 11:56:32;;;;;;;10.40;10.10;;;2.20;99.90;;;;;;6074277;23;20269;-81
2024/01/19 11:58:59;;;;;;;9.97;9.67;;;2.30;99.90;;;;;;6074434;23;20218;-81
2024/01/19 12:01:27;;;;;;;9.83;9.53;;;2.30;99.90;;;;;;6074086;23;20206;-81
2024/01/19 12:03:59;;;;;;;9.97;9.67;;;2.10;99.90;;;;;;6088649;23;20202;-81
2024/01/19 12:06:28;;;;;;;10.40;10.10;;;1.90;99.90;;;;;;6088714;23;20242;-81
2024/01/19 12:09:05;;;;;;;9.77;9.47;;;1.70;99.90;;;;;;6087967;23;20213;-81
2024/01/19 12:11:34;;;;;;;10.07;9.77;;;1.60;99.90;;;;;;6083859;23;20210;-80
2024/01/19 12:14:03;;;;;;;9.83;9.53;;;1.50;99.90;;;;;;6077575;23;20202;-81
2024/01/19 12:16:31;;;;;;;9.70;9.40;;;1.50;99.90;;;;;;6076372;23;20222;-80
2024/01/19 12:19:00;;;;;;;9.70;9.40;;;1.50;99.90;;;;;;6077059;23;20217;-81
2024/01/19 12:21:27;;;;;;;9.80;9.50;;;1.40;99.90;;;;;;6077425;23;20198;-81
2024/01/19 12:23:57;;;;;;;9.60;9.30;;;1.40;99.90;;;;;;6076851;23;20217;-80
2024/01/19 12:26:25;;;;;;;9.63;9.33;;;1.40;99.90;;;;;;6076500;23;20217;-81
2024/01/19 12:28:56;;;;;;;9.90;9.60;;;1.30;99.90;;;;;;6074985;23;20210;-80
2024/01/19 12:31:34;;;;;;;9.80;9.50;;;1.20;99.90;;;;;;6075147;23;20197;-81
2024/01/19 12:34:15;;;;;;;9.57;9.27;;;1.30;99.90;;;;;;6075227;23;20257;-81
2024/01/19 12:36:43;;;;;;;9.57;9.27;;;1.20;99.90;;;;;;6075755;23;20201;-81
2024/01/19 12:39:13;;;;;;;9.80;9.50;;;1.20;99.90;;;;;;6075515;23;20209;-81
2024/01/19 12:41:41;;;;;;;10.10;9.80;;;1.30;99.90;;;;;;6078166;23;20195;-81
2024/01/19 12:44:11;;;;;;;10.10;9.80;;;1.40;99.90;;;;;;6075961;23;20202;-81
2024/01/19 12:46:48;;;;;;;10.10;9.80;;;1.50;99.90;;;;;;6078780;23;20237;-81
2024/01/19 12:49:15;;;;;;;9.60;9.30;;;1.50;99.90;;;;;;6075546;23;20202;-82
2024/01/19 12:51:43;;;;;;;9.83;9.53;;;1.40;99.90;;;;;;6074859;23;20191;-82